Etusivu
METAR-TAF:

METAR-TAF

Lentoasemat :

Pelotas, Rio Grande do Sul, Brasilia

Leveyspiiri: 31-52S, Pituuspiiri: 052-21W, korkeus merenpinnasta: 13 m

Tämänhetkinen sää

Tämä raportti tehtiin 1 tunti ja 0 minuuttia sitten, kello 20.00 UTC
Tuuli 4 kn etelästä/kaakosta
Lämpötila 16°C
Kosteus 94%
Ilmanpaine 1021 hPa
Näkyvyys: 6000 m
Hajonneita pilviä 600 ft:n korkeudessa

METAR: SBPK 222000Z 16004KT 6000 BKN006 16/15 Q1021

Aika: 18:00 (21:00 UTC)

Sääennuste

Tämä raportti tehtiin 6 tuntia ja 0 minuuttia sitten, kello 15.00 UTC
Ennuste voimassa 22. päivästä klo 18 UTC - 23. päivään klo 18 UTC
Tuuli 5 kn lännestä/lounaasta
Näkyvyys: 7000 m
Hajanaisia pilviä 1000 ft:n korkeudessa
Tulossa
22. päivästä klo 22 UTC - 22. päivään klo 24 UTC
Näkyvyys: 3500 m
Hajonneita pilviä 500 ft:n korkeudessa
utua

TAF: SBPK 221500Z 2218/2318 24005KT 7000 SCT010 TX18/2218Z TN13/2307Z BECMG 2222/2224 3500 BR BKN005 RMK PDZ

Säähavainnot ja -ennusteet yli 4000 lentoasemalta (METAR- ja TAF-raportit).

Käytössä olevat sääasemat on merkitty karttaan keltaisilla ja punaisilla pisteillä.

Aseta hiiri pisteen päälle nähdäksesi sääaseman nimen.

Klikkaa sitten nähdäksesi säähavainnot ja -ennusteet.

Kartan vaihtaminen: klikkaa mustalla rastilla varustettuja vihreitä pisteitä, niin voit zoomata sisään; viivalla varustettua vihreää pistettä, niin voit zoomata ulos tai vihreitä nuolia, niin pääset viereisille kartoille.


METAR-TAF: